createdAt,value
2018-12-02T00:00:29.109Z,97467.30
2018-12-02T00:01:00.716Z,97465.99
2018-12-02T00:01:32.314Z,97462.58
2018-12-02T00:02:03.915Z,97463.86
2018-12-02T00:02:35.514Z,97467.20
2018-12-02T00:03:07.130Z,97463.80
2018-12-02T00:03:38.720Z,97456.96
2018-12-02T00:04:10.320Z,97460.36
2018-12-02T00:04:41.904Z,97463.30
2018-12-02T00:05:13.508Z,97454.41
2018-12-02T00:05:45.145Z,97454.83
2018-12-02T00:06:16.737Z,97422.23
2018-12-02T00:06:48.348Z,97452.27
2018-12-02T00:07:19.949Z,97453.13
2018-12-02T00:07:51.557Z,97451.01
2018-12-02T00:08:23.152Z,97452.70
2018-12-02T00:08:54.736Z,97451.02
2018-12-02T00:09:26.369Z,97453.98
2018-12-02T00:09:57.962Z,97440.03
2018-12-02T00:10:29.553Z,97445.49
2018-12-02T00:11:01.137Z,97445.92
2018-12-02T00:11:32.730Z,97435.77
2018-12-02T00:12:04.348Z,97438.27
2018-12-02T00:12:35.952Z,97435.33
2018-12-02T00:13:07.560Z,97435.33
2018-12-02T00:13:39.154Z,97434.91
2018-12-02T00:14:10.736Z,97430.61
2018-12-02T00:14:42.334Z,97436.54
2018-12-02T00:15:13.944Z,97433.58
2018-12-02T00:15:45.593Z,97432.35
2018-12-02T00:16:17.195Z,97426.41
2018-12-02T00:16:48.808Z,97430.27
2018-12-02T00:17:20.440Z,97430.75
2018-12-02T00:17:52.048Z,97428.97
2018-12-02T00:18:23.645Z,97433.23
2018-12-02T00:18:55.248Z,97428.56
2018-12-02T00:19:26.837Z,97428.98
2018-12-02T00:19:58.430Z,97426.91
2018-12-02T00:20:30.076Z,97426.06
2018-12-02T00:21:01.671Z,97427.34
2018-12-02T00:21:33.283Z,97431.63
2018-12-02T00:22:04.878Z,97429.06
2018-12-02T00:22:36.470Z,97427.77
2018-12-02T00:23:08.065Z,97420.13
2018-12-02T00:23:39.663Z,97426.09
2018-12-02T00:24:11.262Z,97431.63
2018-12-02T00:24:42.885Z,97431.27
2018-12-02T00:25:14.478Z,97429.98
2018-12-02T00:25:46.074Z,97431.25
2018-12-02T00:26:17.666Z,97429.98
2018-12-02T00:26:49.269Z,97433.39
2018-12-02T00:27:20.871Z,97434.25
2018-12-02T00:27:52.476Z,97434.69
2018-12-02T00:28:24.106Z,97433.84
2018-12-02T00:28:55.749Z,97438.95
2018-12-02T00:29:27.351Z,97432.19
2018-12-02T00:29:59.000Z,97420.53
2018-12-02T00:30:30.594Z,97434.33
2018-12-02T00:31:02.186Z,97434.75
2018-12-02T00:31:33.831Z,97439.86
2018-12-02T00:32:05.713Z,97434.75
2018-12-02T00:32:37.301Z,97439.00
2018-12-02T00:33:08.894Z,97400.93
2018-12-02T00:33:40.476Z,97435.19
2018-12-02T00:34:12.070Z,97434.34
2018-12-02T00:34:43.670Z,97429.23
2018-12-02T00:35:15.274Z,97430.95
2018-12-02T00:35:46.875Z,97395.84
2018-12-02T00:36:18.471Z,97433.57
2018-12-02T00:36:50.066Z,97429.31
2018-12-02T00:37:21.658Z,97423.71
2018-12-02T00:37:53.273Z,97423.70
2018-12-02T00:38:24.870Z,97427.12
2018-12-02T00:38:56.478Z,97426.69
2018-12-02T00:39:28.120Z,97432.27
2018-12-02T00:39:59.714Z,97426.75
2018-12-02T00:40:31.316Z,97431.06
2018-12-02T00:41:02.900Z,97429.78
2018-12-02T00:41:34.484Z,97428.58
2018-12-02T00:42:06.092Z,97426.06
2018-12-02T00:42:37.686Z,97434.58
2018-12-02T00:43:09.292Z,97429.91
2018-12-02T00:43:40.905Z,97429.12
2018-12-02T00:44:12.492Z,97428.28
2018-12-02T00:44:44.126Z,97427.05
2018-12-02T00:45:15.736Z,97430.47
2018-12-02T00:45:47.379Z,97424.09
2018-12-02T00:46:19.032Z,97426.23
2018-12-02T00:46:50.641Z,97422.46
2018-12-02T00:47:22.238Z,97408.29
2018-12-02T00:47:53.833Z,97429.64
2018-12-02T00:48:25.416Z,97421.14
2018-12-02T00:48:57.052Z,97419.86
2018-12-02T00:49:28.637Z,97403.95
2018-12-02T00:50:00.244Z,97411.86
2018-12-02T00:50:31.847Z,97418.22
2018-12-02T00:51:03.482Z,97425.88
2018-12-02T00:51:35.077Z,97412.72
2018-12-02T00:52:06.674Z,97410.14
2018-12-02T00:52:38.266Z,97411.00
2018-12-02T00:53:09.872Z,97419.92
2018-12-02T00:53:41.486Z,97407.58
2018-12-02T00:54:13.085Z,97402.91
2018-12-02T00:54:44.691Z,97408.02
2018-12-02T00:55:16.295Z,97397.81
2018-12-02T00:55:47.900Z,97400.85
2018-12-02T00:56:19.498Z,97400.85
2018-12-02T00:56:51.080Z,97398.73
2018-12-02T00:57:22.727Z,97399.59
2018-12-02T00:57:54.336Z,97402.58
2018-12-02T00:58:25.948Z,97405.98
2018-12-02T00:58:57.599Z,97401.78
2018-12-02T00:59:29.212Z,97397.12
2018-12-02T01:00:00.813Z,97404.84
2018-12-02T01:00:32.409Z,97400.17
2018-12-02T01:01:03.996Z,97392.09
2018-12-02T01:01:35.593Z,97400.95
2018-12-02T01:02:07.176Z,97392.87
2018-12-02T01:02:38.788Z,97389.91
2018-12-02T01:03:10.384Z,97388.70
2018-12-02T01:03:42.032Z,97389.13
2018-12-02T01:04:13.643Z,97390.41
2018-12-02T01:04:45.264Z,97388.12
2018-12-02T01:05:16.873Z,97394.91
2018-12-02T01:05:48.480Z,97385.56
2018-12-02T01:06:20.068Z,97393.73
2018-12-02T01:06:53.638Z,97382.33
2018-12-02T01:07:23.331Z,97386.25
2018-12-02T01:07:54.983Z,97381.28
2018-12-02T01:08:26.582Z,97387.65
2018-12-02T01:08:58.188Z,97384.33
2018-12-02T01:09:29.796Z,97388.09
2018-12-02T01:10:01.411Z,97379.10
2018-12-02T01:10:33.006Z,97377.02
2018-12-02T01:11:04.612Z,97375.34
2018-12-02T01:11:36.245Z,97375.32
2018-12-02T01:12:07.849Z,97370.22
2018-12-02T01:12:39.447Z,97366.05
2018-12-02T01:13:11.042Z,97375.34
2018-12-02T01:13:42.634Z,97373.22
2018-12-02T01:14:14.225Z,97371.09
2018-12-02T01:14:45.818Z,97373.22
2018-12-02T01:15:17.430Z,97366.05
2018-12-02T01:15:49.016Z,97369.89
2018-12-02T01:16:20.654Z,97367.31
2018-12-02T01:16:52.232Z,97368.12
2018-12-02T01:17:23.827Z,97365.58
2018-12-02T01:17:55.426Z,97366.47
2018-12-02T01:18:27.036Z,97365.14
2018-12-02T01:18:58.643Z,97365.58
2018-12-02T01:19:30.292Z,97372.44
2018-12-02T01:20:01.886Z,97367.40
2018-12-02T01:20:33.508Z,97372.89
2018-12-02T01:21:05.105Z,97368.62
2018-12-02T01:21:36.706Z,97372.88
2018-12-02T01:22:08.318Z,97371.17
2018-12-02T01:22:39.959Z,97374.16
2018-12-02T01:23:11.567Z,97364.37
2018-12-02T01:23:43.177Z,97359.36
2018-12-02T01:24:14.765Z,97368.69
2018-12-02T01:24:46.358Z,97359.34
2018-12-02T01:25:17.954Z,97364.84
2018-12-02T01:25:49.546Z,97362.25
2018-12-02T01:26:21.138Z,97357.56
2018-12-02T01:26:52.786Z,97357.45
2018-12-02T01:27:24.383Z,97359.52
2018-12-02T01:27:56.002Z,97359.07
2018-12-02T01:28:27.602Z,97356.09
2018-12-02T01:28:59.194Z,97350.16
2018-12-02T01:29:30.793Z,97343.78
2018-12-02T01:30:02.376Z,97344.19
2018-12-02T01:30:33.985Z,97346.75
2018-12-02T01:31:05.588Z,97342.93
2018-12-02T01:31:37.196Z,97348.89
2018-12-02T01:32:08.874Z,97344.25
2018-12-02T01:32:40.467Z,97342.14
2018-12-02T01:33:12.067Z,97339.60
2018-12-02T01:33:43.676Z,97336.62
2018-12-02T01:34:15.273Z,97341.31
2018-12-02T01:34:46.882Z,97339.60
2018-12-02T01:35:18.499Z,97338.76
2018-12-02T01:35:50.131Z,97329.41
2018-12-02T01:36:21.765Z,97334.95
2018-12-02T01:36:53.408Z,97334.16
2018-12-02T01:37:25.011Z,97325.22
2018-12-02T01:37:56.606Z,97318.02
2018-12-02T01:38:28.202Z,97323.09
2018-12-02T01:38:59.807Z,97326.06
2018-12-02T01:39:31.422Z,97326.91
2018-12-02T01:40:03.018Z,97319.26
2018-12-02T01:40:34.625Z,97317.56
2018-12-02T01:41:06.231Z,97320.89
2018-12-02T01:41:37.840Z,97326.68
2018-12-02T01:42:09.478Z,97323.19
2018-12-02T01:42:41.086Z,97327.36
2018-12-02T01:43:12.682Z,97326.89
2018-12-02T01:43:44.284Z,97325.18
2018-12-02T01:44:15.879Z,97316.27
2018-12-02T01:44:47.506Z,97324.78
2018-12-02T01:45:19.098Z,97323.06
2018-12-02T01:45:50.708Z,97323.92
2018-12-02T01:46:22.316Z,97316.30
2018-12-02T01:46:53.910Z,97321.73
2018-12-02T01:47:25.511Z,97320.08
2018-12-02T01:47:57.109Z,97324.34
2018-12-02T01:48:28.739Z,97316.27
2018-12-02T01:49:00.361Z,97313.72
2018-12-02T01:49:31.953Z,97304.38
2018-12-02T01:50:03.559Z,97306.55
2018-12-02T01:50:35.158Z,97302.31
2018-12-02T01:51:06.745Z,97300.61
2018-12-02T01:51:38.337Z,97308.22
2018-12-02T01:52:09.945Z,97296.77
2018-12-02T01:52:41.582Z,97300.19
2018-12-02T01:53:13.178Z,97296.79
2018-12-02T01:53:44.770Z,97296.79
2018-12-02T01:54:16.362Z,97297.65
2018-12-02T01:54:47.948Z,97300.61
2018-12-02T01:55:19.545Z,97291.25
2018-12-02T01:55:51.397Z,97286.58
2018-12-02T01:56:23.008Z,97299.34
2018-12-02T01:56:54.635Z,97296.36
2018-12-02T01:57:26.225Z,97292.52
2018-12-02T01:57:57.818Z,97290.42
2018-12-02T01:58:29.415Z,97297.72
2018-12-02T01:59:01.006Z,97293.88
2018-12-02T01:59:32.598Z,97298.59
2018-12-02T02:00:04.194Z,97298.59
2018-12-02T02:00:35.776Z,97300.30
2018-12-02T02:01:07.370Z,97298.60
2018-12-02T02:01:38.963Z,97303.28
2018-12-02T02:02:10.590Z,97300.73
2018-12-02T02:02:42.204Z,97298.65
2018-12-02T02:03:13.804Z,97297.80
2018-12-02T02:03:45.397Z,97291.41
2018-12-02T02:04:16.996Z,97297.80
2018-12-02T02:04:48.590Z,97310.95
2018-12-02T02:05:20.186Z,97307.16
2018-12-02T02:05:51.772Z,97302.48
2018-12-02T02:06:23.384Z,97305.03
2018-12-02T02:06:54.983Z,97303.33
2018-12-02T02:07:26.618Z,97275.13
2018-12-02T02:07:58.210Z,97311.43
2018-12-02T02:08:29.860Z,97310.13
2018-12-02T02:09:01.464Z,97312.69
2018-12-02T02:09:33.066Z,97316.52
2018-12-02T02:10:04.648Z,97314.40
2018-12-02T02:10:36.241Z,97318.65
2018-12-02T02:11:07.828Z,97316.94
2018-12-02T02:11:39.436Z,97320.39
2018-12-02T02:12:11.032Z,97323.35
2018-12-02T02:12:42.626Z,97321.20
2018-12-02T02:13:14.221Z,97315.28
2018-12-02T02:13:45.823Z,97322.90
2018-12-02T02:14:17.431Z,97331.36
2018-12-02T02:14:49.039Z,97316.47
2018-12-02T02:15:20.634Z,97318.60
2018-12-02T02:15:52.248Z,97318.95
2018-12-02T02:16:23.856Z,97325.28
2018-12-02T02:16:55.440Z,97326.08
2018-12-02T02:17:27.034Z,97320.55
2018-12-02T02:17:58.684Z,97326.97
2018-12-02T02:18:30.296Z,97321.47
2018-12-02T02:19:01.884Z,97323.61
2018-12-02T02:19:33.474Z,97321.97
2018-12-02T02:20:05.070Z,97321.56
2018-12-02T02:20:36.672Z,97316.94
2018-12-02T02:21:08.284Z,97320.72
2018-12-02T02:21:39.936Z,97319.86
2018-12-02T02:22:11.521Z,97327.09
2018-12-02T02:22:43.115Z,97325.41
2018-12-02T02:23:14.792Z,97320.39
2018-12-02T02:23:46.430Z,97321.62
2018-12-02T02:24:18.012Z,97319.94
2018-12-02T02:24:49.646Z,97319.07
2018-12-02T02:25:21.865Z,97314.42
2018-12-02T02:25:53.465Z,97315.27
2018-12-02T02:26:25.076Z,97312.34
2018-12-02T02:26:56.675Z,97308.95
2018-12-02T02:27:28.289Z,97274.36
2018-12-02T02:27:59.896Z,97300.88
2018-12-02T02:28:31.503Z,97305.16
2018-12-02T02:29:03.138Z,97293.30
2018-12-02T02:29:34.720Z,97300.10
2018-12-02T02:30:06.321Z,97296.27
2018-12-02T02:30:37.915Z,97299.63
2018-12-02T02:31:09.517Z,97299.22
2018-12-02T02:31:41.125Z,97301.38
2018-12-02T02:32:13.056Z,97298.00
2018-12-02T02:32:44.649Z,97307.77
2018-12-02T02:33:16.247Z,97298.84
2018-12-02T02:33:47.842Z,97294.16
2018-12-02T02:34:19.442Z,97293.73
2018-12-02T02:34:51.029Z,97298.41
2018-12-02T02:35:22.668Z,97290.33
2018-12-02T02:35:54.293Z,97298.86
2018-12-02T02:36:25.889Z,97298.02
2018-12-02T02:36:57.486Z,97293.77
2018-12-02T02:37:29.078Z,97303.17
2018-12-02T02:38:00.671Z,97297.64
2018-12-02T02:38:32.266Z,97300.65
2018-12-02T02:39:03.861Z,97303.64
2018-12-02T02:39:35.552Z,97297.67
2018-12-02T02:40:07.151Z,97292.63
2018-12-02T02:40:38.792Z,97291.73
2018-12-02T02:41:10.400Z,97290.06
2018-12-02T02:41:42.002Z,97291.73
2018-12-02T02:42:13.615Z,97287.05
2018-12-02T02:42:45.230Z,97280.72
2018-12-02T02:43:16.829Z,97284.96
2018-12-02T02:43:48.419Z,97276.47
2018-12-02T02:44:20.031Z,97277.76
2018-12-02T02:44:51.629Z,97265.44
2018-12-02T02:45:23.240Z,97271.38
2018-12-02T02:45:54.878Z,97260.33
2018-12-02T02:46:26.474Z,97265.00
2018-12-02T02:46:58.059Z,97265.44
2018-12-02T02:47:29.670Z,97262.86
2018-12-02T02:48:01.266Z,97257.77
2018-12-02T02:48:32.862Z,97252.67
2018-12-02T02:49:04.493Z,97263.31
2018-12-02T02:49:36.098Z,97254.39
2018-12-02T02:50:07.684Z,97254.39
2018-12-02T02:50:39.283Z,97254.88
2018-12-02T02:51:10.878Z,97260.81
2018-12-02T02:51:42.474Z,97250.61
2018-12-02T02:52:14.059Z,97254.79
2018-12-02T02:52:45.670Z,97255.61
2018-12-02T02:53:17.266Z,97262.34
2018-12-02T02:53:48.917Z,97251.66
2018-12-02T02:54:20.523Z,97252.56
2018-12-02T02:54:52.118Z,97248.66
2018-12-02T02:55:23.725Z,97250.28
2018-12-02T02:55:55.321Z,97253.66
2018-12-02T02:56:26.960Z,97246.84
2018-12-02T02:56:58.554Z,97248.53
2018-12-02T02:57:30.157Z,97247.64
2018-12-02T02:58:01.762Z,97251.09
2018-12-02T02:58:33.345Z,97245.14
2018-12-02T02:59:04.952Z,97250.69
2018-12-02T02:59:36.564Z,97253.27
2018-12-02T03:00:08.232Z,97249.07
2018-12-02T03:00:39.840Z,97245.26
2018-12-02T03:01:11.424Z,97247.83
2018-12-02T03:01:43.028Z,97240.22
2018-12-02T03:02:14.636Z,97249.16
2018-12-02T03:02:46.236Z,97247.02
2018-12-02T03:03:17.836Z,97243.63
2018-12-02T03:03:49.442Z,97241.09
2018-12-02T03:04:21.033Z,97240.23
2018-12-02T03:04:52.644Z,97221.02
2018-12-02T03:05:24.242Z,97237.27
2018-12-02T03:05:55.845Z,97241.52
2018-12-02T03:06:27.449Z,97236.42
2018-12-02T03:06:59.046Z,97237.25
2018-12-02T03:07:30.645Z,97238.96
2018-12-02T03:08:02.238Z,97235.98
2018-12-02T03:08:33.849Z,97228.31
2018-12-02T03:09:05.454Z,97232.98
2018-12-02T03:09:37.049Z,97229.97
2018-12-02T03:10:08.636Z,97226.60
2018-12-02T03:10:40.244Z,97221.50
2018-12-02T03:11:11.848Z,97225.33
2018-12-02T03:11:43.442Z,97224.06
2018-12-02T03:12:15.037Z,97225.75
2018-12-02T03:12:46.638Z,97223.20
2018-12-02T03:13:18.243Z,97224.48
2018-12-02T03:13:49.847Z,97219.37
2018-12-02T03:14:21.445Z,97224.92
2018-12-02T03:14:53.039Z,97217.69
2018-12-02T03:15:24.642Z,97210.47
2018-12-02T03:15:56.242Z,97208.33
2018-12-02T03:16:27.834Z,97216.41
2018-12-02T03:16:59.440Z,97217.27
2018-12-02T03:17:31.033Z,97209.59
2018-12-02T03:18:02.683Z,97218.11
2018-12-02T03:18:34.278Z,97221.09
2018-12-02T03:19:05.875Z,97209.61
2018-12-02T03:19:37.478Z,97209.61
2018-12-02T03:20:09.080Z,97207.91
2018-12-02T03:20:40.708Z,97198.81
2018-12-02T03:21:12.302Z,97219.80
2018-12-02T03:21:43.898Z,97217.25
2018-12-02T03:22:15.509Z,97203.23
2018-12-02T03:22:47.123Z,97210.48
2018-12-02T03:23:18.775Z,97204.96
2018-12-02T03:23:50.379Z,97216.41
2018-12-02T03:24:21.974Z,97209.17
2018-12-02T03:24:53.565Z,97209.59
2018-12-02T03:25:25.157Z,97207.41
2018-12-02T03:25:56.754Z,97214.21
2018-12-02T03:26:28.349Z,97206.20
2018-12-02T03:26:59.954Z,97204.84
2018-12-02T03:27:31.545Z,97207.81
2018-12-02T03:28:03.142Z,97203.97
2018-12-02T03:28:34.778Z,97203.92
2018-12-02T03:29:06.370Z,97201.84
2018-12-02T03:29:37.952Z,97198.39
2018-12-02T03:30:09.546Z,97198.81
2018-12-02T03:30:41.189Z,97205.17
2018-12-02T03:31:12.787Z,97205.17
2018-12-02T03:31:44.385Z,97201.84
2018-12-02T03:32:16.079Z,97212.42
2018-12-02T03:32:47.704Z,97213.67
2018-12-02T03:33:19.364Z,97201.77
2018-12-02T03:33:50.961Z,97206.88
2018-12-02T03:34:22.544Z,97209.44
2018-12-02T03:34:54.134Z,97210.72
2018-12-02T03:35:25.735Z,97205.27
2018-12-02T03:35:57.337Z,97209.07
2018-12-02T03:36:28.934Z,97206.12
2018-12-02T03:37:00.516Z,97210.77
2018-12-02T03:37:32.115Z,97209.88
2018-12-02T03:38:03.724Z,97212.48
2018-12-02T03:38:35.370Z,97212.92
2018-12-02T03:39:06.956Z,97205.25
2018-12-02T03:39:38.559Z,97209.02
2018-12-02T03:40:10.162Z,97216.58
2018-12-02T03:40:41.778Z,97209.31
2018-12-02T03:41:13.360Z,97213.52
2018-12-02T03:41:44.958Z,97214.77
2018-12-02T03:42:16.560Z,97214.33
2018-12-02T03:42:48.198Z,97210.52
2018-12-02T03:43:19.807Z,97210.45
2018-12-02T03:43:51.445Z,97214.28
2018-12-02T03:44:23.046Z,97210.87
2018-12-02T03:44:54.657Z,97210.08
2018-12-02T03:45:26.269Z,97216.91
2018-12-02T03:45:57.877Z,97219.86
2018-12-02T03:46:29.484Z,97220.27
2018-12-02T03:47:01.078Z,97220.75
2018-12-02T03:47:32.680Z,97210.92
2018-12-02T03:48:04.283Z,97219.02
2018-12-02T03:48:35.882Z,97215.17
2018-12-02T03:49:07.532Z,97220.23
2018-12-02T03:49:39.354Z,97218.50
2018-12-02T03:50:17.131Z,97214.23
2018-12-02T03:50:42.653Z,97209.13
2018-12-02T03:51:14.245Z,97209.56
2018-12-02T03:51:45.838Z,97206.17
2018-12-02T03:52:17.429Z,97206.59
2018-12-02T03:52:49.037Z,97207.47
2018-12-02T03:53:20.688Z,97216.84
2018-12-02T03:53:52.288Z,97204.45
2018-12-02T03:54:23.886Z,97204.45
2018-12-02T03:54:55.512Z,97209.58
2018-12-02T03:55:27.091Z,97210.02
2018-12-02T03:55:58.682Z,97212.56
2018-12-02T03:56:30.278Z,97202.80
2018-12-02T03:57:01.997Z,97203.27
2018-12-02T03:57:33.601Z,97207.53
2018-12-02T03:58:05.217Z,97202.41
2018-12-02T03:58:36.871Z,97207.97
2018-12-02T03:59:08.470Z,97205.41
2018-12-02T03:59:40.226Z,97199.53
2018-12-02T04:00:11.818Z,97207.98
2018-12-02T04:00:43.410Z,97205.48
2018-12-02T04:01:15.006Z,97196.13
2018-12-02T04:01:46.611Z,97196.55
2018-12-02T04:02:18.220Z,97197.50
2018-12-02T04:02:49.817Z,97210.61
2018-12-02T04:03:21.432Z,97203.38
2018-12-02T04:03:53.434Z,97204.23
2018-12-02T04:04:25.029Z,97204.67
2018-12-02T04:04:56.652Z,97204.25
2018-12-02T04:05:28.246Z,97196.25
2018-12-02T04:05:59.851Z,97200.48
2018-12-02T04:06:31.446Z,97200.48
2018-12-02T04:07:03.059Z,97195.33
2018-12-02T04:07:34.656Z,97195.33
2018-12-02T04:08:06.253Z,97194.95
2018-12-02T04:08:37.846Z,97201.33
2018-12-02T04:09:09.438Z,97201.25
2018-12-02T04:09:41.034Z,97198.59
2018-12-02T04:10:12.678Z,97194.28
2018-12-02T04:10:44.273Z,97201.05
2018-12-02T04:11:15.875Z,97190.84
2018-12-02T04:11:47.461Z,97185.75
2018-12-02T04:12:19.053Z,97189.13
2018-12-02T04:12:50.679Z,97188.66
2018-12-02T04:13:22.282Z,97184.83
2018-12-02T04:13:53.930Z,97187.42
2018-12-02T04:14:25.522Z,97192.11
2018-12-02T04:14:57.137Z,97181.00
2018-12-02T04:15:28.744Z,97186.57
2018-12-02T04:16:00.328Z,97181.92
2018-12-02T04:16:31.922Z,97185.73
2018-12-02T04:17:03.519Z,97178.51
2018-12-02T04:17:35.109Z,97179.38
2018-12-02T04:18:06.717Z,97180.29
2018-12-02T04:18:38.319Z,97178.17
2018-12-02T04:19:09.918Z,97179.91
2018-12-02T04:19:41.509Z,97183.73
2018-12-02T04:20:13.112Z,97171.04
2018-12-02T04:20:44.727Z,97187.14
2018-12-02T04:21:16.326Z,97180.81
2018-12-02T04:21:47.918Z,97177.84
2018-12-02T04:22:19.514Z,97173.17
2018-12-02T04:22:51.135Z,97168.09
2018-12-02T04:23:22.770Z,97160.09
2018-12-02T04:23:54.379Z,97164.36
2018-12-02T04:24:25.979Z,97160.52
2018-12-02T04:24:57.573Z,97157.54
2018-12-02T04:25:29.173Z,97157.13
2018-12-02T04:26:00.828Z,97159.72
2018-12-02T04:26:32.436Z,97157.98
2018-12-02T04:27:04.038Z,97157.61
2018-12-02T04:27:35.640Z,97149.11
2018-12-02T04:28:07.234Z,97155.06
2018-12-02T04:28:38.827Z,97153.78
2018-12-02T04:29:10.413Z,97150.81
2018-12-02T04:29:42.022Z,97144.01
2018-12-02T04:30:13.623Z,97143.59
2018-12-02T04:30:45.251Z,97151.67
2018-12-02T04:31:16.832Z,97147.34
2018-12-02T04:31:48.430Z,97147.77
2018-12-02T04:32:20.042Z,97151.59
2018-12-02T04:32:51.657Z,97153.78
2018-12-02T04:33:23.262Z,97146.55
2018-12-02T04:33:54.854Z,97152.94
2018-12-02T04:34:26.464Z,97141.03
2018-12-02T04:34:58.076Z,97158.91
2018-12-02T04:35:29.716Z,97153.80
2018-12-02T04:36:01.320Z,97150.83
2018-12-02T04:36:32.921Z,97144.86
2018-12-02T04:37:04.532Z,97148.76
2018-12-02T04:37:36.242Z,97155.49
2018-12-02T04:38:07.854Z,97142.33
2018-12-02T04:38:39.447Z,97148.69
2018-12-02T04:39:11.055Z,97152.94
2018-12-02T04:39:42.654Z,97148.36
2018-12-02T04:40:14.246Z,97148.78
2018-12-02T04:40:45.895Z,97151.33
2018-12-02T04:41:17.494Z,97150.45
2018-12-02T04:41:49.108Z,97141.91
2018-12-02T04:42:20.703Z,97148.30
2018-12-02T04:42:52.309Z,97148.34
2018-12-02T04:43:23.911Z,97147.06
2018-12-02T04:43:55.521Z,97147.02
2018-12-02T04:44:27.114Z,97145.72
2018-12-02T04:44:58.696Z,97147.00
2018-12-02T04:45:30.287Z,97151.69
2018-12-02T04:46:01.936Z,97157.61
2018-12-02T04:46:33.524Z,97163.15
2018-12-02T04:47:05.113Z,97158.91
2018-12-02T04:47:36.705Z,97152.52
2018-12-02T04:48:08.297Z,97150.41
2018-12-02T04:48:39.890Z,97152.12
2018-12-02T04:49:11.490Z,97154.23
2018-12-02T04:49:43.082Z,97142.33
2018-12-02T04:50:14.722Z,97141.91
2018-12-02T04:50:46.393Z,97140.28
2018-12-02T04:51:18.003Z,97141.39
2018-12-02T04:51:49.615Z,97143.91
2018-12-02T04:52:21.266Z,97140.01
2018-12-02T04:52:52.876Z,97137.00
2018-12-02T04:53:24.483Z,97139.12
2018-12-02T04:53:56.077Z,97137.86
2018-12-02T04:54:27.699Z,97133.59
2018-12-02T04:54:59.313Z,97132.75
2018-12-02T04:55:30.925Z,97137.00
2018-12-02T04:56:02.534Z,97133.17
2018-12-02T04:56:34.140Z,97135.73
2018-12-02T04:57:05.738Z,97133.16
2018-12-02T04:57:37.369Z,97131.81
2018-12-02T04:58:08.971Z,97127.13
2018-12-02T04:58:40.578Z,97128.37
2018-12-02T04:59:12.187Z,97134.70
2018-12-02T04:59:43.842Z,97130.87
2018-12-02T05:00:15.456Z,97127.45
2018-12-02T05:00:47.072Z,97125.33
2018-12-02T05:01:18.683Z,97122.77
2018-12-02T05:01:50.278Z,97126.18
2018-12-02T05:02:21.885Z,97124.92
2018-12-02T05:02:53.497Z,97128.75
2018-12-02T05:03:25.109Z,97127.11
2018-12-02T05:03:56.711Z,97119.91
2018-12-02T05:04:28.300Z,97119.89
2018-12-02T05:04:59.934Z,97124.57
2018-12-02T05:05:31.554Z,97124.59
2018-12-02T05:06:03.166Z,97115.66
2018-12-02T05:06:34.816Z,97119.12
2018-12-02T05:07:06.410Z,97114.38
2018-12-02T05:07:37.997Z,97117.33
2018-12-02T05:08:09.591Z,97112.66
2018-12-02T05:08:41.196Z,97118.63
2018-12-02T05:09:12.835Z,97111.39
2018-12-02T05:09:44.445Z,97110.95
2018-12-02T05:10:16.055Z,97115.62
2018-12-02T05:10:47.664Z,97110.47
2018-12-02T05:11:19.272Z,97116.01
2018-12-02T05:11:50.867Z,97111.30
2018-12-02T05:12:22.462Z,97106.63
2018-12-02T05:12:54.059Z,97114.27
2018-12-02T05:13:25.679Z,97104.57
2018-12-02T05:13:57.284Z,97113.41
2018-12-02T05:14:28.918Z,97102.45
2018-12-02T05:15:00.517Z,97109.17
2018-12-02T05:15:32.114Z,97107.45
2018-12-02T05:16:03.705Z,97110.01
2018-12-02T05:16:35.303Z,97106.62
2018-12-02T05:17:06.898Z,97102.80
2018-12-02T05:17:38.498Z,97101.08
2018-12-02T05:18:10.113Z,97106.18
2018-12-02T05:18:41.710Z,97097.27
2018-12-02T05:19:13.324Z,97100.23
2018-12-02T05:19:44.932Z,97096.84
2018-12-02T05:20:16.526Z,97104.94
2018-12-02T05:20:48.155Z,97098.14
2018-12-02T05:21:19.793Z,97096.91
2018-12-02T05:21:51.396Z,97095.66
2018-12-02T05:22:23.044Z,97095.22
2018-12-02T05:22:54.652Z,97094.36
2018-12-02T05:23:26.245Z,97092.17
2018-12-02T05:23:57.841Z,97093.03
2018-12-02T05:24:29.423Z,97089.20
2018-12-02T05:25:01.058Z,97088.40
2018-12-02T05:25:32.708Z,97085.84
2018-12-02T05:26:04.302Z,97087.13
2018-12-02T05:26:35.903Z,97084.57
2018-12-02T05:27:07.489Z,97083.73
2018-12-02T05:27:39.082Z,97082.44
2018-12-02T05:28:10.693Z,97092.13
2018-12-02T05:28:42.305Z,97080.11
2018-12-02T05:29:13.952Z,97084.30
2018-12-02T05:29:45.549Z,97079.11
2018-12-02T05:30:17.190Z,97078.23
2018-12-02T05:30:48.784Z,97077.80
2018-12-02T05:31:20.392Z,97079.02
2018-12-02T05:31:51.998Z,97077.80
2018-12-02T05:32:23.608Z,97071.88
2018-12-02T05:32:55.206Z,97079.11
2018-12-02T05:33:26.780Z,97079.11
2018-12-02T05:33:58.385Z,97070.68
2018-12-02T05:34:29.996Z,97070.23
2018-12-02T05:35:01.610Z,97066.78
2018-12-02T05:35:33.214Z,97067.69
2018-12-02T05:36:04.850Z,97069.84
2018-12-02T05:36:36.446Z,97069.89
2018-12-02T05:37:08.052Z,97064.38
2018-12-02T05:37:39.689Z,97063.52
2018-12-02T05:38:11.282Z,97069.01
2018-12-02T05:38:42.874Z,97063.98
2018-12-02T05:39:14.468Z,97066.52
2018-12-02T05:39:46.076Z,97069.09
2018-12-02T05:40:17.676Z,97066.39
2018-12-02T05:40:49.270Z,97076.83
2018-12-02T05:41:20.867Z,97072.81
2018-12-02T05:41:52.475Z,97071.84
2018-12-02T05:42:24.074Z,97064.55
2018-12-02T05:42:55.666Z,97065.77
2018-12-02T05:43:27.279Z,97061.92
2018-12-02T05:43:58.908Z,97059.80
2018-12-02T05:44:30.504Z,97064.92
2018-12-02T05:45:02.111Z,97062.36
2018-12-02T05:45:33.731Z,97062.34
2018-12-02T05:46:05.321Z,97061.05
2018-12-02T05:46:36.909Z,97060.25
2018-12-02T05:47:08.512Z,97058.11
2018-12-02T05:47:40.151Z,97059.02
2018-12-02T05:48:11.750Z,97053.98
2018-12-02T05:48:43.392Z,97056.89
2018-12-02T05:49:14.987Z,97056.47
2018-12-02T05:49:46.568Z,97058.17
2018-12-02T05:50:18.151Z,97062.02
2018-12-02T05:50:49.741Z,97054.78
2018-12-02T05:51:21.355Z,97052.64
2018-12-02T05:51:52.964Z,97050.09
2018-12-02T05:52:24.576Z,97050.56
2018-12-02T05:52:56.184Z,97050.20
2018-12-02T05:53:27.778Z,97049.07
2018-12-02T05:53:59.380Z,97049.13
2018-12-02T05:54:30.987Z,97049.66
2018-12-02T05:55:02.625Z,97048.91
2018-12-02T05:55:34.209Z,97011.49
2018-12-02T05:56:05.806Z,97045.64
2018-12-02T05:56:37.416Z,97040.58
2018-12-02T05:57:09.028Z,97038.09
2018-12-02T05:57:40.637Z,97033.43
2018-12-02T05:58:12.233Z,97035.56
2018-12-02T05:58:43.866Z,97035.67
2018-12-02T05:59:15.472Z,97036.00
2018-12-02T05:59:47.089Z,97039.84
2018-12-02T06:00:18.696Z,97034.38
2018-12-02T06:00:50.280Z,97035.69
2018-12-02T06:01:21.888Z,97034.05
2018-12-02T06:01:53.472Z,97041.30
2018-12-02T06:02:25.081Z,97039.52
2018-12-02T06:02:56.720Z,97036.02
2018-12-02T06:03:28.304Z,97032.16
2018-12-02T06:03:59.898Z,97034.27
2018-12-02T06:04:31.490Z,97035.55
2018-12-02T06:05:03.072Z,97030.86
2018-12-02T06:05:34.673Z,97035.08
2018-12-02T06:06:06.272Z,97032.92
2018-12-02T06:06:37.857Z,97033.76
2018-12-02T06:07:09.463Z,97040.98
2018-12-02T06:07:41.059Z,97035.45
2018-12-02T06:08:12.712Z,97033.27
2018-12-02T06:08:44.305Z,97040.55
2018-12-02T06:09:15.898Z,97039.30
2018-12-02T06:09:47.542Z,97030.78
2018-12-02T06:10:19.124Z,97029.97
2018-12-02T06:10:50.737Z,97024.42
2018-12-02T06:11:22.340Z,97026.61